createdAt,value
2018-11-20T00:02:08.285Z,20.00
2018-11-20T00:04:57.128Z,20.00
2018-11-20T00:07:36.634Z,19.90
2018-11-20T00:10:28.557Z,19.90
2018-11-20T00:13:14.556Z,19.90
2018-11-20T00:16:03.343Z,19.90
2018-11-20T00:18:50.661Z,19.90
2018-11-20T00:21:48.226Z,19.90
2018-11-20T00:24:35.866Z,19.90
2018-11-20T00:27:27.275Z,19.90
2018-11-20T00:30:14.430Z,19.90
2018-11-20T00:33:14.977Z,19.90
2018-11-20T00:36:13.441Z,19.90
2018-11-20T00:38:58.162Z,19.80
2018-11-20T00:41:49.821Z,19.80
2018-11-20T00:44:41.312Z,19.80
2018-11-20T00:47:28.532Z,19.80
2018-11-20T00:50:15.926Z,19.80
2018-11-20T00:53:03.134Z,19.80
2018-11-20T00:56:26.223Z,19.80
2018-11-20T00:59:13.480Z,19.80
2018-11-20T01:02:00.659Z,19.80
2018-11-20T01:04:48.182Z,19.70
2018-11-20T01:07:49.187Z,19.70
2018-11-20T01:10:37.912Z,19.70
2018-11-20T01:13:32.229Z,19.70
2018-11-20T01:16:39.286Z,19.70
2018-11-20T01:19:20.187Z,19.70
2018-11-20T01:22:01.000Z,19.70
2018-11-20T01:24:48.350Z,19.70
2018-11-20T01:27:31.856Z,19.60
2018-11-20T01:30:29.400Z,19.60
2018-11-20T01:33:20.734Z,19.60
2018-11-20T01:36:07.344Z,19.60
2018-11-20T01:39:02.083Z,19.60
2018-11-20T01:41:50.826Z,19.60
2018-11-20T01:44:42.215Z,19.60
2018-11-20T01:47:29.498Z,19.60
2018-11-20T01:50:16.651Z,19.50
2018-11-20T01:53:20.417Z,19.50
2018-11-20T01:56:21.082Z,19.50
2018-11-20T01:59:18.702Z,19.50
2018-11-20T02:02:06.557Z,19.50
2018-11-20T02:05:10.437Z,19.50
2018-11-20T02:07:59.572Z,19.50
2018-11-20T02:10:46.721Z,19.50
2018-11-20T02:14:12.421Z,19.50
2018-11-20T02:17:09.676Z,19.50
2018-11-20T02:20:02.342Z,19.40
2018-11-20T02:23:00.247Z,19.40
2018-11-20T02:25:51.730Z,19.40
2018-11-20T02:28:39.317Z,19.40
2018-11-20T02:31:26.745Z,19.40
2018-11-20T02:34:27.461Z,19.40
2018-11-20T02:37:14.653Z,19.30
2018-11-20T02:40:12.550Z,19.40
2018-11-20T02:42:52.341Z,19.40
2018-11-20T02:45:37.829Z,19.40
2018-11-20T02:48:25.931Z,19.30
2018-11-20T02:51:13.068Z,19.30
2018-11-20T02:54:06.139Z,19.30
2018-11-20T02:56:52.517Z,19.30
2018-11-20T02:59:40.042Z,19.30
2018-11-20T03:02:41.318Z,19.30
2018-11-20T03:05:48.322Z,19.20
2018-11-20T03:08:43.473Z,19.30
2018-11-20T03:11:21.863Z,19.20
2018-11-20T03:14:10.621Z,19.20
2018-11-20T03:16:58.062Z,19.20
2018-11-20T03:19:49.423Z,19.20
2018-11-20T03:22:41.042Z,19.20
2018-11-20T03:25:58.883Z,19.20
2018-11-20T03:29:05.886Z,19.20
2018-11-20T03:31:53.280Z,19.10
2018-11-20T03:35:00.008Z,19.10
2018-11-20T03:38:06.675Z,19.10
2018-11-20T03:41:10.410Z,19.10
2018-11-20T03:44:11.146Z,19.10
2018-11-20T03:47:02.614Z,19.10
2018-11-20T03:49:51.351Z,19.10
2018-11-20T03:52:58.408Z,19.10
2018-11-20T03:55:59.118Z,19.10
2018-11-20T03:58:47.877Z,19.00
2018-11-20T04:01:30.681Z,19.00
2018-11-20T04:04:19.392Z,19.00
2018-11-20T04:07:26.589Z,19.00
2018-11-20T04:10:24.932Z,19.00
2018-11-20T04:13:13.680Z,19.00
2018-11-20T04:15:58.529Z,19.00
2018-11-20T04:18:46.079Z,19.00
2018-11-20T04:21:34.816Z,19.00
2018-11-20T04:24:22.153Z,19.00
2018-11-20T04:27:08.900Z,18.90
2018-11-20T04:29:57.662Z,18.90
2018-11-20T04:32:45.302Z,18.90
2018-11-20T04:35:34.525Z,18.90
2018-11-20T04:38:21.827Z,18.90
2018-11-20T04:41:19.449Z,18.90
2018-11-20T04:44:06.724Z,18.90
2018-11-20T04:46:54.018Z,18.90
2018-11-20T04:49:41.477Z,18.90
2018-11-20T04:52:28.613Z,18.80
2018-11-20T04:55:20.108Z,18.80
2018-11-20T04:58:08.444Z,18.80
2018-11-20T05:00:55.544Z,18.80
2018-11-20T05:03:33.104Z,18.80
2018-11-20T05:06:20.364Z,18.80
2018-11-20T05:09:18.227Z,18.80
2018-11-20T05:12:07.397Z,18.80
2018-11-20T05:15:11.068Z,18.80
2018-11-20T05:17:58.627Z,18.80
2018-11-20T05:20:38.661Z,18.80
2018-11-20T05:23:30.310Z,18.80
2018-11-20T05:26:31.030Z,18.80
2018-11-20T05:29:19.784Z,18.80
2018-11-20T05:32:17.361Z,18.80
2018-11-20T05:35:04.595Z,18.80
2018-11-20T05:37:43.371Z,18.80
2018-11-20T05:40:34.820Z,18.80
2018-11-20T05:43:22.190Z,18.70
2018-11-20T05:46:13.670Z,18.70
2018-11-20T05:49:12.523Z,18.70
2018-11-20T05:51:57.553Z,18.70
2018-11-20T05:54:43.152Z,18.60
2018-11-20T05:57:30.160Z,18.60
2018-11-20T06:00:21.939Z,18.70
2018-11-20T06:03:09.153Z,18.70
2018-11-20T06:06:03.885Z,18.70
2018-11-20T06:09:04.535Z,18.70
2018-11-20T06:11:51.934Z,18.70
2018-11-20T06:14:46.262Z,18.70
2018-11-20T06:17:33.542Z,18.70
2018-11-20T06:20:21.298Z,18.60
2018-11-20T06:23:10.082Z,18.70
2018-11-20T06:25:57.344Z,18.70
2018-11-20T06:28:49.133Z,18.70
2018-11-20T06:31:38.487Z,18.70
2018-11-20T06:34:26.201Z,18.70
2018-11-20T06:37:18.093Z,18.70
2018-11-20T06:40:15.784Z,18.60
2018-11-20T06:43:07.344Z,18.60
2018-11-20T06:45:58.934Z,18.60
2018-11-20T06:48:47.350Z,18.60
2018-11-20T06:51:39.185Z,18.60
2018-11-20T06:54:36.946Z,18.60
2018-11-20T06:57:24.667Z,18.60
2018-11-20T07:00:11.663Z,18.60
2018-11-20T07:03:09.694Z,18.60
2018-11-20T07:05:56.989Z,18.60
2018-11-20T07:08:44.907Z,18.60
2018-11-20T07:11:39.828Z,18.60
2018-11-20T07:14:33.032Z,18.50
2018-11-20T07:17:28.766Z,18.60
2018-11-20T07:20:37.467Z,18.50
2018-11-20T07:23:26.237Z,18.50
2018-11-20T07:26:27.166Z,18.50
2018-11-20T07:29:14.672Z,18.50
2018-11-20T07:32:12.356Z,18.50
2018-11-20T07:35:04.029Z,18.50
2018-11-20T07:38:01.825Z,18.50
2018-11-20T07:40:49.255Z,18.50
2018-11-20T07:43:38.510Z,18.50
2018-11-20T07:46:32.953Z,18.50
2018-11-20T07:49:39.798Z,18.50
2018-11-20T07:52:32.050Z,18.50
2018-11-20T07:55:19.692Z,18.50
2018-11-20T07:58:17.404Z,18.50
2018-11-20T08:01:08.988Z,18.50
2018-11-20T08:03:50.972Z,18.50
2018-11-20T08:06:45.479Z,18.40
2018-11-20T08:09:34.364Z,18.40
2018-11-20T08:12:20.572Z,18.40
2018-11-20T08:15:09.316Z,18.40
2018-11-20T08:18:00.850Z,18.40
2018-11-20T08:20:49.753Z,18.40
2018-11-20T08:23:47.349Z,18.40
2018-11-20T08:26:43.451Z,18.40
2018-11-20T08:29:30.979Z,18.40
2018-11-20T08:32:22.556Z,18.40
2018-11-20T08:35:03.063Z,18.40
2018-11-20T08:37:51.872Z,18.40
2018-11-20T08:40:49.639Z,18.40
2018-11-20T08:43:44.413Z,18.40
2018-11-20T08:46:33.264Z,18.40
2018-11-20T08:49:20.867Z,18.30
2018-11-20T08:52:12.782Z,18.30
2018-11-20T08:55:10.725Z,18.30
2018-11-20T08:57:59.570Z,18.40
2018-11-20T09:00:51.094Z,18.30
2018-11-20T09:03:38.405Z,18.30
2018-11-20T09:06:37.438Z,18.30
2018-11-20T09:09:27.273Z,18.30
2018-11-20T09:12:15.297Z,18.30
2018-11-20T09:14:53.100Z,18.30
2018-11-20T09:17:44.950Z,18.30
2018-11-20T09:20:32.558Z,18.30
2018-11-20T09:23:27.577Z,18.30
2018-11-20T09:26:14.980Z,18.30
2018-11-20T09:29:02.654Z,18.30
2018-11-20T09:31:54.351Z,18.30
2018-11-20T09:34:49.136Z,18.30
2018-11-20T09:38:06.020Z,18.30
2018-11-20T09:41:04.641Z,18.30
2018-11-20T09:44:03.634Z,18.30
2018-11-20T09:46:52.512Z,18.30
2018-11-20T09:49:38.939Z,18.30
2018-11-20T09:52:27.760Z,18.30
2018-11-20T09:55:16.474Z,18.30
2018-11-20T09:58:03.730Z,18.30
2018-11-20T10:00:51.030Z,18.30
2018-11-20T10:03:42.308Z,18.30
2018-11-20T10:06:46.003Z,18.30
2018-11-20T10:09:33.198Z,18.30
2018-11-20T10:12:21.944Z,18.30
2018-11-20T10:15:19.799Z,18.30
2018-11-20T10:18:14.458Z,18.30
2018-11-20T10:21:12.117Z,18.30
2018-11-20T10:24:06.629Z,18.30
2018-11-20T10:27:07.471Z,18.20
2018-11-20T10:30:01.901Z,18.20
2018-11-20T10:33:02.684Z,18.20
2018-11-20T10:35:51.479Z,18.20
2018-11-20T10:38:55.522Z,18.20
2018-11-20T10:41:42.918Z,18.30
2018-11-20T10:44:30.465Z,18.30
2018-11-20T10:47:21.748Z,18.30
2018-11-20T10:50:09.069Z,18.20
2018-11-20T10:53:04.094Z,18.20
2018-11-20T10:55:51.785Z,18.20
2018-11-20T10:58:49.594Z,18.20
2018-11-20T11:01:41.073Z,18.20
2018-11-20T11:04:30.452Z,18.20
2018-11-20T11:07:18.727Z,18.20
2018-11-20T11:09:56.511Z,18.20
2018-11-20T11:12:43.929Z,18.20
2018-11-20T11:15:38.630Z,18.20
2018-11-20T11:18:33.636Z,18.20
2018-11-20T11:21:25.168Z,18.20
2018-11-20T11:24:12.755Z,18.20
2018-11-20T11:27:00.364Z,18.20
2018-11-20T11:29:47.527Z,18.20
2018-11-20T11:32:42.288Z,18.20
2018-11-20T11:35:29.511Z,18.20
2018-11-20T11:38:24.409Z,18.20
2018-11-20T11:41:11.851Z,18.20
2018-11-20T11:44:03.691Z,18.20
2018-11-20T11:47:10.762Z,18.10
2018-11-20T11:50:02.352Z,18.20
2018-11-20T11:52:55.432Z,18.10
2018-11-20T11:55:43.227Z,18.10
2018-11-20T11:58:30.838Z,18.10
2018-11-20T12:01:25.606Z,18.10
2018-11-20T12:04:23.383Z,18.10
2018-11-20T12:07:09.542Z,18.10
2018-11-20T12:10:10.519Z,18.10
2018-11-20T12:13:05.054Z,18.10
2018-11-20T12:15:45.646Z,18.10
2018-11-20T12:18:37.099Z,18.10
2018-11-20T12:21:25.936Z,18.10
2018-11-20T12:24:27.329Z,18.10
2018-11-20T12:27:07.509Z,18.10
2018-11-20T12:30:11.241Z,18.10
2018-11-20T12:32:59.998Z,18.10
2018-11-20T12:35:48.764Z,18.10
2018-11-20T12:38:32.652Z,18.10
2018-11-20T12:41:14.768Z,18.10
2018-11-20T12:44:05.920Z,18.10
2018-11-20T12:46:50.902Z,18.10
2018-11-20T12:49:41.453Z,18.00
2018-11-20T12:52:24.701Z,18.10
2018-11-20T12:55:13.472Z,18.00
2018-11-20T12:58:54.134Z,18.00
2018-11-20T13:01:46.532Z,18.10
2018-11-20T13:04:33.008Z,18.00
2018-11-20T13:07:36.104Z,18.00
2018-11-20T13:10:23.340Z,18.00
2018-11-20T13:13:09.787Z,18.00
2018-11-20T13:15:56.652Z,18.00
2018-11-20T13:18:54.137Z,18.00
2018-11-20T13:21:42.503Z,18.00
2018-11-20T13:24:46.758Z,18.00
2018-11-20T13:27:46.894Z,18.00
2018-11-20T13:30:33.366Z,18.00
2018-11-20T13:33:20.401Z,18.00
2018-11-20T13:36:13.222Z,18.00
2018-11-20T13:39:11.824Z,18.00
2018-11-20T13:42:02.656Z,18.00
2018-11-20T13:44:52.594Z,18.00
2018-11-20T13:47:43.383Z,18.00
2018-11-20T13:50:46.358Z,18.00
2018-11-20T13:53:31.783Z,18.00
2018-11-20T13:56:17.133Z,18.00
2018-11-20T13:59:03.753Z,18.00
2018-11-20T14:01:44.137Z,18.00
2018-11-20T14:04:32.049Z,18.00
2018-11-20T14:07:28.726Z,18.00
2018-11-20T14:10:10.710Z,18.00
2018-11-20T14:13:04.451Z,17.90
2018-11-20T14:15:51.379Z,18.00
2018-11-20T14:18:37.971Z,17.90
2018-11-20T14:21:24.266Z,17.90
2018-11-20T14:24:12.205Z,17.90
2018-11-20T14:27:09.149Z,17.90
2018-11-20T14:29:48.437Z,17.90
2018-11-20T14:32:34.905Z,17.90
2018-11-20T14:35:41.299Z,17.90
2018-11-20T14:38:28.123Z,17.90
2018-11-20T14:41:14.623Z,17.90
2018-11-20T14:44:02.987Z,17.90
2018-11-20T14:47:00.369Z,17.90
2018-11-20T14:49:53.846Z,17.90
2018-11-20T14:52:41.865Z,17.90
2018-11-20T14:55:48.042Z,17.90
2018-11-20T14:58:32.376Z,17.80
2018-11-20T15:01:35.682Z,17.80
2018-11-20T15:04:41.884Z,17.80
2018-11-20T15:07:32.488Z,17.80
2018-11-20T15:10:23.348Z,17.80
2018-11-20T15:13:20.195Z,17.70
2018-11-20T15:16:01.449Z,17.70
2018-11-20T15:18:55.523Z,17.80
2018-11-20T15:21:43.452Z,17.70
2018-11-20T15:24:43.547Z,17.70
2018-11-20T15:27:30.152Z,17.80
2018-11-20T15:30:21.005Z,17.80
2018-11-20T15:33:14.971Z,17.70
2018-11-20T15:36:01.726Z,17.70
2018-11-20T15:38:55.943Z,17.70
2018-11-20T15:41:32.348Z,17.80
2018-11-20T15:44:29.511Z,17.70
2018-11-20T15:47:17.572Z,17.80
2018-11-20T15:50:04.351Z,17.90
2018-11-20T15:52:45.530Z,18.00
2018-11-20T15:55:32.165Z,18.10
2018-11-20T15:58:19.142Z,18.20
2018-11-20T16:01:05.623Z,18.30
2018-11-20T16:03:52.259Z,18.40
2018-11-20T16:06:42.792Z,18.50
2018-11-20T16:09:25.984Z,18.60
2018-11-20T16:12:12.826Z,18.60
2018-11-20T16:15:06.534Z,18.70
2018-11-20T16:17:53.140Z,18.80
2018-11-20T16:20:41.065Z,18.90
2018-11-20T16:23:26.490Z,19.00
2018-11-20T16:26:14.395Z,19.20
2018-11-20T16:29:06.301Z,19.30
2018-11-20T16:31:54.295Z,19.40
2018-11-20T16:34:40.685Z,19.50
2018-11-20T16:37:27.214Z,19.60
2018-11-20T16:40:20.734Z,19.70
2018-11-20T16:43:03.390Z,19.70
2018-11-20T16:46:00.126Z,19.80
2018-11-20T16:48:51.158Z,19.90
2018-11-20T16:51:37.796Z,19.90
2018-11-20T16:54:25.774Z,20.00
2018-11-20T16:57:16.674Z,20.10
2018-11-20T17:00:10.862Z,20.10
2018-11-20T17:03:05.061Z,20.20
2018-11-20T17:05:58.934Z,20.20
2018-11-20T17:08:55.685Z,20.10
2018-11-20T17:11:52.550Z,20.20
2018-11-20T17:14:39.094Z,20.20
2018-11-20T17:17:25.588Z,20.20
2018-11-20T17:20:06.295Z,20.20
2018-11-20T17:22:59.968Z,20.20
2018-11-20T17:25:46.676Z,20.20
2018-11-20T17:28:34.652Z,20.20
2018-11-20T17:31:29.035Z,20.20
2018-11-20T17:34:35.295Z,20.30
2018-11-20T17:37:18.694Z,20.30
2018-11-20T17:40:06.670Z,20.30
2018-11-20T17:42:53.551Z,20.30
2018-11-20T17:45:41.506Z,20.30
2018-11-20T17:48:34.452Z,20.30
2018-11-20T17:51:20.823Z,20.30
2018-11-20T17:54:08.742Z,20.30
2018-11-20T17:57:02.857Z,20.30
2018-11-20T17:59:52.383Z,20.30
2018-11-20T18:02:40.311Z,20.30
2018-11-20T18:05:26.727Z,20.30
2018-11-20T18:08:17.089Z,20.30
2018-11-20T18:11:03.441Z,20.30
2018-11-20T18:13:51.343Z,20.30
2018-11-20T18:16:37.649Z,20.40
2018-11-20T18:19:35.036Z,20.40
2018-11-20T18:22:22.957Z,20.40
2018-11-20T18:25:16.732Z,20.40
2018-11-20T18:28:03.150Z,20.30
2018-11-20T18:30:49.793Z,20.30
2018-11-20T18:33:40.532Z,20.40
2018-11-20T18:36:28.488Z,20.40
2018-11-20T18:39:19.344Z,20.40
2018-11-20T18:42:12.192Z,20.40
2018-11-20T18:44:50.092Z,20.40
2018-11-20T18:47:36.520Z,20.40
2018-11-20T18:50:23.925Z,20.40
2018-11-20T18:53:03.991Z,20.40
2018-11-20T18:55:39.869Z,20.40
2018-11-20T18:58:25.458Z,20.40
2018-11-20T19:01:17.877Z,20.40
2018-11-20T19:04:04.766Z,20.40
2018-11-20T19:06:51.091Z,20.40
2018-11-20T19:09:45.436Z,20.40
2018-11-20T19:12:48.683Z,20.40
2018-11-20T19:15:35.116Z,20.40
2018-11-20T19:18:24.144Z,20.40
2018-11-20T19:21:10.216Z,20.50
2018-11-20T19:23:56.625Z,20.50
2018-11-20T19:26:43.087Z,20.50
2018-11-20T19:29:43.012Z,20.60
2018-11-20T19:32:33.827Z,20.60
2018-11-20T19:35:20.423Z,20.60
2018-11-20T19:38:23.351Z,20.60
2018-11-20T19:41:19.510Z,20.60
2018-11-20T19:44:10.064Z,20.60
2018-11-20T19:47:03.470Z,20.60
2018-11-20T19:50:03.571Z,20.60
2018-11-20T19:52:49.897Z,20.60
2018-11-20T19:55:36.742Z,20.70
2018-11-20T19:58:30.845Z,20.70
2018-11-20T20:01:17.905Z,20.70
2018-11-20T20:04:08.425Z,20.70
2018-11-20T20:06:58.233Z,20.70
2018-11-20T20:09:46.196Z,20.70
2018-11-20T20:12:32.263Z,20.70
2018-11-20T20:15:32.155Z,20.70
2018-11-20T20:18:23.395Z,20.70
2018-11-20T20:21:29.586Z,20.70
2018-11-20T20:24:16.644Z,20.70
2018-11-20T20:27:03.352Z,20.70
2018-11-20T20:29:51.296Z,20.70
2018-11-20T20:32:41.102Z,20.70
2018-11-20T20:35:37.028Z,20.60
2018-11-20T20:38:37.486Z,20.60
2018-11-20T20:41:24.176Z,20.60
2018-11-20T20:44:21.044Z,20.60
2018-11-20T20:47:08.428Z,20.60
2018-11-20T20:49:46.492Z,20.50
2018-11-20T20:52:34.535Z,20.50
2018-11-20T20:55:28.393Z,20.50
2018-11-20T20:58:18.844Z,20.50
2018-11-20T21:01:05.373Z,20.50
2018-11-20T21:04:02.548Z,20.40
2018-11-20T21:06:47.224Z,20.40
2018-11-20T21:09:47.441Z,20.30
2018-11-20T21:12:36.874Z,20.30
2018-11-20T21:15:23.671Z,20.30
2018-11-20T21:18:11.623Z,20.30
2018-11-20T21:21:10.224Z,20.30
2018-11-20T21:23:56.045Z,20.20
2018-11-20T21:26:42.756Z,20.20
2018-11-20T21:29:45.825Z,20.20
2018-11-20T21:32:33.731Z,20.20
2018-11-20T21:35:21.639Z,20.10
2018-11-20T21:38:08.185Z,20.10
2018-11-20T21:40:54.855Z,20.10
2018-11-20T21:43:46.064Z,20.10
2018-11-20T21:46:46.232Z,20.10
2018-11-20T21:49:52.600Z,20.00
2018-11-20T21:52:49.482Z,20.00
2018-11-20T21:55:43.419Z,19.90
2018-11-20T21:58:40.364Z,19.90
2018-11-20T22:01:27.991Z,19.90
2018-11-20T22:04:34.435Z,19.90
2018-11-20T22:07:28.398Z,19.80
2018-11-20T22:10:28.127Z,19.80
2018-11-20T22:13:26.434Z,19.80
2018-11-20T22:16:29.174Z,19.80
2018-11-20T22:19:19.775Z,19.80
2018-11-20T22:22:06.454Z,19.80
2018-11-20T22:24:56.954Z,19.70
2018-11-20T22:27:53.862Z,19.70
2018-11-20T22:30:44.576Z,19.70
2018-11-20T22:33:38.158Z,19.70
2018-11-20T22:36:23.511Z,19.60
2018-11-20T22:39:20.195Z,19.60
2018-11-20T22:42:06.468Z,19.60
2018-11-20T22:44:51.684Z,19.60
2018-11-20T22:47:42.327Z,19.50
2018-11-20T22:50:36.229Z,19.50
2018-11-20T22:53:24.328Z,19.50
2018-11-20T22:56:07.982Z,19.50
2018-11-20T22:58:54.612Z,19.50
2018-11-20T23:01:41.911Z,19.40
2018-11-20T23:04:30.830Z,19.40
2018-11-20T23:07:33.924Z,19.40
2018-11-20T23:10:02.818Z,19.40
2018-11-20T23:12:31.707Z,19.40
2018-11-20T23:15:00.602Z,19.40
2018-11-20T23:17:29.688Z,19.30
2018-11-20T23:19:58.588Z,19.30
2018-11-20T23:22:27.733Z,19.30
2018-11-20T23:24:56.757Z,19.30
2018-11-20T23:27:25.734Z,19.30
2018-11-20T23:29:54.634Z,19.30
2018-11-20T23:32:23.524Z,19.30
2018-11-20T23:34:52.405Z,19.30
2018-11-20T23:37:22.328Z,19.30
2018-11-20T23:39:51.219Z,19.20
2018-11-20T23:42:23.871Z,19.20
2018-11-20T23:44:48.991Z,19.20
2018-11-20T23:47:17.982Z,19.20
2018-11-20T23:49:46.874Z,19.20
2018-11-20T23:52:15.911Z,19.20
2018-11-20T23:54:44.795Z,19.20
2018-11-20T23:57:13.767Z,19.20
2018-11-20T23:59:42.656Z,19.20
